createdAt,value
2023-02-01T00:00:07.747Z,1.81
2023-02-01T00:01:07.701Z,1.87
2023-02-01T00:02:07.719Z,1.93
2023-02-01T00:03:07.630Z,1.92
2023-02-01T00:04:07.590Z,1.91
2023-02-01T00:05:07.566Z,1.85
2023-02-01T00:06:07.511Z,1.87
2023-02-01T00:07:07.483Z,1.84
2023-02-01T00:08:07.439Z,1.95
2023-02-01T00:09:07.429Z,2.01
2023-02-01T00:10:07.373Z,1.97
2023-02-01T00:11:07.341Z,1.97
2023-02-01T00:12:07.310Z,1.97
2023-02-01T00:13:07.248Z,1.92
2023-02-01T00:14:07.200Z,1.93
2023-02-01T00:15:07.183Z,1.84
2023-02-01T00:16:07.179Z,1.81
2023-02-01T00:17:07.108Z,1.81
2023-02-01T00:18:07.052Z,1.77
2023-02-01T00:19:07.019Z,1.80
2023-02-01T00:20:06.983Z,1.78
2023-02-01T00:21:06.959Z,1.81
2023-02-01T00:22:06.885Z,1.85
2023-02-01T00:23:06.864Z,1.84
2023-02-01T00:24:06.823Z,1.85
2023-02-01T00:25:06.803Z,1.84
2023-02-01T00:26:06.783Z,1.73
2023-02-01T00:27:06.703Z,1.73
2023-02-01T00:28:06.672Z,1.75
2023-02-01T00:29:06.633Z,1.78
2023-02-01T00:30:06.635Z,1.82
2023-02-01T00:31:06.694Z,1.81
2023-02-01T00:32:06.583Z,1.84
2023-02-01T00:33:06.477Z,1.78
2023-02-01T00:34:06.456Z,1.81
2023-02-01T00:35:06.435Z,1.74
2023-02-01T00:36:06.376Z,1.71
2023-02-01T00:37:06.336Z,1.78
2023-02-01T00:38:06.314Z,1.77
2023-02-01T00:39:06.277Z,1.81
2023-02-01T00:40:06.254Z,1.85
2023-02-01T00:41:06.223Z,1.80
2023-02-01T00:42:06.193Z,1.84
2023-02-01T00:43:06.138Z,1.82
2023-02-01T00:44:06.117Z,1.80
2023-02-01T00:45:06.088Z,1.81
2023-02-01T00:46:06.090Z,1.78
2023-02-01T00:47:06.034Z,1.75
2023-02-01T00:48:05.985Z,1.78
2023-02-01T00:49:05.967Z,1.80
2023-02-01T00:50:05.930Z,1.75
2023-02-01T00:51:05.896Z,1.80
2023-02-01T00:52:05.858Z,1.74
2023-02-01T00:53:05.844Z,1.67
2023-02-01T00:54:05.780Z,1.75
2023-02-01T00:55:05.766Z,1.71
2023-02-01T00:56:05.721Z,1.75
2023-02-01T00:57:05.678Z,1.69
2023-02-01T00:58:05.646Z,1.69
2023-02-01T00:59:05.611Z,1.73
2023-02-01T01:00:05.568Z,1.69
2023-02-01T01:01:05.598Z,1.75
2023-02-01T01:02:05.541Z,1.71
2023-02-01T01:03:05.471Z,1.73
2023-02-01T01:04:05.420Z,1.67
2023-02-01T01:05:05.423Z,1.67
2023-02-01T01:06:05.385Z,1.69
2023-02-01T01:07:05.341Z,1.71
2023-02-01T01:08:05.302Z,1.71
2023-02-01T01:09:05.289Z,1.67
2023-02-01T01:10:05.253Z,1.71
2023-02-01T01:11:05.188Z,1.73
2023-02-01T01:12:05.142Z,1.71
2023-02-01T01:13:05.124Z,1.66
2023-02-01T01:14:05.098Z,1.77
2023-02-01T01:15:05.085Z,1.69
2023-02-01T01:16:05.130Z,1.69
2023-02-01T01:17:05.018Z,1.67
2023-02-01T01:18:04.984Z,1.71
2023-02-01T01:19:04.967Z,1.67
2023-02-01T01:20:04.938Z,1.74
2023-02-01T01:21:04.896Z,1.60
2023-02-01T01:22:04.859Z,1.64
2023-02-01T01:23:04.828Z,1.57
2023-02-01T01:24:04.798Z,1.62
2023-02-01T01:25:04.775Z,1.62
2023-02-01T01:26:06.229Z,1.60
2023-02-01T01:27:04.702Z,1.64
2023-02-01T01:28:04.675Z,1.64
2023-02-01T01:29:04.649Z,1.67
2023-02-01T01:30:04.624Z,1.63
2023-02-01T01:31:04.670Z,1.71
2023-02-01T01:32:04.547Z,1.67
2023-02-01T01:33:04.512Z,1.67
2023-02-01T01:34:04.472Z,1.66
2023-02-01T01:35:04.458Z,1.64
2023-02-01T01:36:04.416Z,1.67
2023-02-01T01:37:04.400Z,1.71
2023-02-01T01:38:04.347Z,1.74
2023-02-01T01:39:04.306Z,1.69
2023-02-01T01:40:04.303Z,1.71
2023-02-01T01:41:04.235Z,1.62
2023-02-01T01:42:04.216Z,1.63
2023-02-01T01:43:04.185Z,1.73
2023-02-01T01:44:04.149Z,1.62
2023-02-01T01:45:04.108Z,1.59
2023-02-01T01:46:04.077Z,1.64
2023-02-01T01:47:04.038Z,1.64
2023-02-01T01:48:03.979Z,1.66
2023-02-01T01:49:03.958Z,1.64
2023-02-01T01:50:03.910Z,1.62
2023-02-01T01:51:03.858Z,1.62
2023-02-01T01:52:03.809Z,1.62
2023-02-01T01:53:03.778Z,1.57
2023-02-01T01:54:03.746Z,1.62
2023-02-01T01:55:03.710Z,1.63
2023-02-01T01:56:03.670Z,1.64
2023-02-01T01:57:03.631Z,1.60
2023-02-01T01:58:03.601Z,1.63
2023-02-01T01:59:03.565Z,1.53
2023-02-01T02:00:03.544Z,1.48
2023-02-01T02:01:03.524Z,1.45
2023-02-01T02:02:03.652Z,1.42
2023-02-01T02:03:03.414Z,1.39
2023-02-01T02:04:03.390Z,1.41
2023-02-01T02:05:03.367Z,1.42
2023-02-01T02:06:03.311Z,1.49
2023-02-01T02:07:03.303Z,1.56
2023-02-01T02:08:03.256Z,1.62
2023-02-01T02:09:05.948Z,1.62
2023-02-01T02:10:03.183Z,1.62
2023-02-01T02:11:03.158Z,1.62
2023-02-01T02:12:03.100Z,1.73
2023-02-01T02:13:03.063Z,1.60
2023-02-01T02:14:03.052Z,1.64
2023-02-01T02:15:03.015Z,1.62
2023-02-01T02:16:03.003Z,1.66
2023-02-01T02:17:02.989Z,1.78
2023-02-01T02:18:02.888Z,1.73
2023-02-01T02:19:02.867Z,1.74
2023-02-01T02:20:02.835Z,1.67
2023-02-01T02:21:02.802Z,1.73
2023-02-01T02:22:02.763Z,1.73
2023-02-01T02:23:02.736Z,1.74
2023-02-01T02:24:02.709Z,1.74
2023-02-01T02:25:02.685Z,1.77
2023-02-01T02:26:02.628Z,1.77
2023-02-01T02:27:02.589Z,1.82
2023-02-01T02:28:02.579Z,1.77
2023-02-01T02:29:02.527Z,1.74
2023-02-01T02:30:02.507Z,1.91
2023-02-01T02:31:02.523Z,2.00
2023-02-01T02:32:02.424Z,2.04
2023-02-01T02:33:02.400Z,2.01
2023-02-01T02:34:02.364Z,1.93
2023-02-01T02:35:02.345Z,1.92
2023-02-01T02:36:02.294Z,1.92
2023-02-01T02:37:02.310Z,1.81
2023-02-01T02:38:02.240Z,1.84
2023-02-01T02:39:02.219Z,1.82
2023-02-01T02:40:02.185Z,1.97
2023-02-01T02:41:02.144Z,1.91
2023-02-01T02:42:02.127Z,1.91
2023-02-01T02:43:02.085Z,1.92
2023-02-01T02:44:02.058Z,1.93
2023-02-01T02:45:02.157Z,1.89
2023-02-01T02:46:02.069Z,1.82
2023-02-01T02:47:01.989Z,1.84
2023-02-01T02:48:01.972Z,1.81
2023-02-01T02:49:01.952Z,1.84
2023-02-01T02:50:01.912Z,1.81
2023-02-01T02:51:01.907Z,1.82
2023-02-01T02:52:01.876Z,1.77
2023-02-01T02:53:01.851Z,1.84
2023-02-01T02:54:01.826Z,1.92
2023-02-01T02:55:01.829Z,1.82
2023-02-01T02:56:01.783Z,1.80
2023-02-01T02:57:01.764Z,1.85
2023-02-01T02:58:01.742Z,1.84
2023-02-01T02:59:01.721Z,1.80
2023-02-01T03:00:01.738Z,1.80
2023-02-01T03:01:01.715Z,1.77
2023-02-01T03:02:01.654Z,1.81
2023-02-01T03:03:01.752Z,1.77
2023-02-01T03:04:01.601Z,1.81
2023-02-01T03:05:01.595Z,1.85
2023-02-01T03:06:01.554Z,1.81
2023-02-01T03:07:01.548Z,1.78
2023-02-01T03:08:01.527Z,1.78
2023-02-01T03:09:01.484Z,1.78
2023-02-01T03:10:01.536Z,1.74
2023-02-01T03:11:01.452Z,1.71
2023-02-01T03:12:01.419Z,1.73
2023-02-01T03:13:01.386Z,1.74
2023-02-01T03:14:01.361Z,1.73
2023-02-01T03:15:01.335Z,1.73
2023-02-01T03:16:01.295Z,1.77
2023-02-01T03:17:01.278Z,1.80
2023-02-01T03:18:01.243Z,1.78
2023-02-01T03:19:01.211Z,1.78
2023-02-01T03:20:01.191Z,1.74
2023-02-01T03:21:01.163Z,1.81
2023-02-01T03:22:06.319Z,1.73
2023-02-01T03:23:01.117Z,1.69
2023-02-01T03:24:01.086Z,1.69
2023-02-01T03:25:01.068Z,1.69
2023-02-01T03:26:01.056Z,1.71
2023-02-01T03:27:00.997Z,1.80
2023-02-01T03:28:00.979Z,1.81
2023-02-01T03:29:00.941Z,1.80
2023-02-01T03:30:00.924Z,1.73
2023-02-01T03:31:00.877Z,1.78
2023-02-01T03:32:00.907Z,1.74
2023-02-01T03:33:00.782Z,1.74
2023-02-01T03:34:00.792Z,1.74
2023-02-01T03:35:00.745Z,1.67
2023-02-01T03:36:00.677Z,1.71
2023-02-01T03:37:00.652Z,1.71
2023-02-01T03:38:00.602Z,1.73
2023-02-01T03:39:00.602Z,1.71
2023-02-01T03:40:00.552Z,1.74
2023-02-01T03:41:00.512Z,1.64
2023-02-01T03:42:00.483Z,1.73
2023-02-01T03:43:00.442Z,1.75
2023-02-01T03:44:00.402Z,1.71
2023-02-01T03:45:00.372Z,1.74
2023-02-01T03:46:00.380Z,1.74
2023-02-01T03:47:00.316Z,1.74
2023-02-01T03:48:00.296Z,1.74
2023-02-01T03:49:00.233Z,1.73
2023-02-01T03:50:00.202Z,1.69
2023-02-01T03:51:00.153Z,1.71
2023-02-01T03:52:00.173Z,1.67
2023-02-01T03:53:00.118Z,1.64
2023-02-01T03:54:00.041Z,1.66
2023-02-01T03:55:00.010Z,1.67
2023-02-01T03:55:59.963Z,1.66
2023-02-01T03:56:59.937Z,1.69
2023-02-01T03:57:59.890Z,1.69
2023-02-01T03:59:00.010Z,1.67
2023-02-01T03:59:59.826Z,1.73
2023-02-01T04:00:59.842Z,1.73
2023-02-01T04:01:59.735Z,1.69
2023-02-01T04:02:59.717Z,1.66
2023-02-01T04:03:59.676Z,1.62
2023-02-01T04:04:59.655Z,1.69
2023-02-01T04:05:59.630Z,1.71
2023-02-01T04:06:59.567Z,1.69
2023-02-01T04:07:59.526Z,1.71
2023-02-01T04:08:59.499Z,1.74
2023-02-01T04:09:59.457Z,1.80
2023-02-01T04:10:59.418Z,1.80
2023-02-01T04:11:59.373Z,1.74
2023-02-01T04:12:59.310Z,1.80
2023-02-01T04:13:59.269Z,1.77
2023-02-01T04:14:59.245Z,1.81
2023-02-01T04:15:59.188Z,1.74
2023-02-01T04:16:59.153Z,1.80
2023-02-01T04:17:59.102Z,1.74
2023-02-01T04:18:59.077Z,1.69
2023-02-01T04:19:59.035Z,1.74
2023-02-01T04:20:58.990Z,1.78
2023-02-01T04:21:58.951Z,1.71
2023-02-01T04:22:58.918Z,1.71
2023-02-01T04:23:58.894Z,1.74
2023-02-01T04:24:58.860Z,1.73
2023-02-01T04:25:58.815Z,1.75
2023-02-01T04:26:58.775Z,1.78
2023-02-01T04:27:58.752Z,1.81
2023-02-01T04:28:58.700Z,1.81
2023-02-01T04:29:58.720Z,1.82
2023-02-01T04:30:58.787Z,1.81
2023-02-01T04:31:58.570Z,1.81
2023-02-01T04:32:58.546Z,1.84
2023-02-01T04:33:58.581Z,1.87
2023-02-01T04:34:58.494Z,1.80
2023-02-01T04:35:58.435Z,1.80
2023-02-01T04:36:58.403Z,1.78
2023-02-01T04:37:58.421Z,1.89
2023-02-01T04:38:58.345Z,1.91
2023-02-01T04:39:58.310Z,1.85
2023-02-01T04:40:58.271Z,1.82
2023-02-01T04:41:58.214Z,1.81
2023-02-01T04:42:58.180Z,1.81
2023-02-01T04:43:58.168Z,1.87
2023-02-01T04:44:58.106Z,1.81
2023-02-01T04:45:58.099Z,1.81
2023-02-01T04:46:58.022Z,1.78
2023-02-01T04:47:58.028Z,1.74
2023-02-01T04:48:57.947Z,1.74
2023-02-01T04:49:57.905Z,1.69
2023-02-01T04:50:57.857Z,1.71
2023-02-01T04:51:57.826Z,1.73
2023-02-01T04:52:57.790Z,1.71
2023-02-01T04:53:57.746Z,1.66
2023-02-01T04:54:59.182Z,1.71
2023-02-01T04:55:57.706Z,1.66
2023-02-01T04:56:57.626Z,1.64
2023-02-01T04:57:57.569Z,1.64
2023-02-01T04:58:57.539Z,1.60
2023-02-01T04:59:57.513Z,1.55
2023-02-01T05:00:57.518Z,1.53
2023-02-01T05:01:57.448Z,1.49
2023-02-01T05:02:57.407Z,1.44
2023-02-01T05:03:57.355Z,1.36
2023-02-01T05:04:57.416Z,1.39
2023-02-01T05:05:57.319Z,1.28
2023-02-01T05:06:57.259Z,1.24
2023-02-01T05:07:57.230Z,1.21
2023-02-01T05:08:57.181Z,1.23
2023-02-01T05:09:57.160Z,1.12
2023-02-01T05:10:57.110Z,1.12
2023-02-01T05:11:57.069Z,1.12
2023-02-01T05:12:57.019Z,1.08
2023-02-01T05:13:57.012Z,1.08
2023-02-01T05:14:56.970Z,1.12
2023-02-01T05:15:57.010Z,1.17
2023-02-01T05:16:56.922Z,1.20
2023-02-01T05:17:56.872Z,1.27
2023-02-01T05:18:56.868Z,1.30
2023-02-01T05:19:56.838Z,1.38
2023-02-01T05:20:56.823Z,1.38
2023-02-01T05:21:56.768Z,1.39
2023-02-01T05:22:56.748Z,1.34
2023-02-01T05:23:56.711Z,1.34
2023-02-01T05:24:56.706Z,1.46
2023-02-01T05:25:56.664Z,1.46
2023-02-01T05:26:56.645Z,1.53
2023-02-01T05:27:56.609Z,1.56
2023-02-01T05:28:56.581Z,1.62
2023-02-01T05:29:56.550Z,1.62
2023-02-01T05:30:56.639Z,1.63
2023-02-01T05:31:57.201Z,1.71
2023-02-01T05:32:56.454Z,1.66
2023-02-01T05:33:56.373Z,1.66
2023-02-01T05:34:56.353Z,1.67
2023-02-01T05:35:56.321Z,1.74
2023-02-01T05:36:56.298Z,1.66
2023-02-01T05:37:56.276Z,1.73
2023-02-01T05:38:56.268Z,1.69
2023-02-01T05:39:56.205Z,1.63
2023-02-01T05:40:56.163Z,1.62
2023-02-01T05:41:56.107Z,1.59
2023-02-01T05:42:56.119Z,1.56
2023-02-01T05:43:56.058Z,1.55
2023-02-01T05:44:56.107Z,1.60
2023-02-01T05:45:56.098Z,1.59
2023-02-01T05:46:55.968Z,1.59
2023-02-01T05:47:55.925Z,1.57
2023-02-01T05:48:55.898Z,1.56
2023-02-01T05:49:55.887Z,1.55
2023-02-01T05:50:55.827Z,1.52
2023-02-01T05:51:55.776Z,1.57
2023-02-01T05:52:55.763Z,1.49
2023-02-01T05:53:55.707Z,1.57
2023-02-01T05:54:55.714Z,1.53
2023-02-01T05:55:55.637Z,1.46
2023-02-01T05:56:55.619Z,1.57
2023-02-01T05:57:55.589Z,1.60
2023-02-01T05:59:07.750Z,1.57
2023-02-01T05:59:55.553Z,1.64
2023-02-01T06:00:55.498Z,1.69
2023-02-01T06:01:55.479Z,1.63
2023-02-01T06:02:55.462Z,1.67
2023-02-01T06:03:55.456Z,1.56
2023-02-01T06:04:55.371Z,1.63
2023-02-01T06:05:55.364Z,1.66
2023-02-01T06:06:55.296Z,1.73
2023-02-01T06:07:55.270Z,1.81
2023-02-01T06:08:55.240Z,1.85
2023-02-01T06:09:55.221Z,1.84
2023-02-01T06:10:55.159Z,1.87
2023-02-01T06:11:55.140Z,1.81
2023-02-01T06:12:55.110Z,1.67
2023-02-01T06:13:55.077Z,1.74
2023-02-01T06:14:55.049Z,1.71
2023-02-01T06:15:55.046Z,1.74
2023-02-01T06:16:54.952Z,1.74
2023-02-01T06:17:54.940Z,1.71
2023-02-01T06:18:54.970Z,1.77
2023-02-01T06:19:54.880Z,1.81
2023-02-01T06:20:54.820Z,1.91
2023-02-01T06:21:54.794Z,1.89
2023-02-01T06:22:54.750Z,1.85
2023-02-01T06:23:54.720Z,1.85
2023-02-01T06:24:54.700Z,1.82
2023-02-01T06:25:54.644Z,1.77
2023-02-01T06:26:54.639Z,1.74
2023-02-01T06:27:54.601Z,1.66
2023-02-01T06:28:54.547Z,1.80
2023-02-01T06:29:54.533Z,1.78
2023-02-01T06:30:54.537Z,1.75
2023-02-01T06:31:54.574Z,1.74
2023-02-01T06:32:54.466Z,1.78
2023-02-01T06:33:54.403Z,1.75
2023-02-01T06:34:54.375Z,1.71
2023-02-01T06:35:54.343Z,1.71
2023-02-01T06:36:54.336Z,1.75
2023-02-01T06:37:54.300Z,1.80
2023-02-01T06:38:54.265Z,1.80
2023-02-01T06:39:54.255Z,1.71
2023-02-01T06:40:54.194Z,1.74
2023-02-01T06:41:54.188Z,1.73
2023-02-01T06:42:54.124Z,1.74
2023-02-01T06:43:54.103Z,1.73
2023-02-01T06:44:54.054Z,1.67
2023-02-01T06:45:54.022Z,1.69
2023-02-01T06:46:54.035Z,1.73
2023-02-01T06:47:53.937Z,1.74
2023-02-01T06:48:53.892Z,1.69
2023-02-01T06:49:53.878Z,1.75
2023-02-01T06:50:53.825Z,1.73
2023-02-01T06:51:53.795Z,1.78
2023-02-01T06:52:53.747Z,1.73
2023-02-01T06:53:53.716Z,1.75
2023-02-01T06:54:53.708Z,1.81
2023-02-01T06:55:53.645Z,1.77
2023-02-01T06:56:53.607Z,1.80
2023-02-01T06:57:53.568Z,1.91
2023-02-01T06:58:53.526Z,1.93
2023-02-01T06:59:53.508Z,1.95
2023-02-01T07:00:53.523Z,1.87
2023-02-01T07:01:53.490Z,1.75
2023-02-01T07:02:53.397Z,1.80
2023-02-01T07:03:53.379Z,1.77
2023-02-01T07:04:53.349Z,1.75
2023-02-01T07:05:53.306Z,1.75
2023-02-01T07:06:53.269Z,1.80
2023-02-01T07:07:53.247Z,1.80
2023-02-01T07:08:53.188Z,1.80
2023-02-01T07:09:53.174Z,1.73
2023-02-01T07:10:53.119Z,1.75
2023-02-01T07:11:53.091Z,1.73
2023-02-01T07:12:53.041Z,1.75
2023-02-01T07:13:53.009Z,1.81
2023-02-01T07:14:52.979Z,1.84
2023-02-01T07:15:52.969Z,1.81
2023-02-01T07:16:52.902Z,1.81
2023-02-01T07:17:52.880Z,1.89
2023-02-01T07:18:52.841Z,1.80
2023-02-01T07:19:52.811Z,1.85
2023-02-01T07:20:52.792Z,1.82
2023-02-01T07:21:52.741Z,1.82
2023-02-01T07:22:52.701Z,1.85
2023-02-01T07:23:52.659Z,1.84
2023-02-01T07:24:52.622Z,1.95
2023-02-01T07:25:52.602Z,1.93
2023-02-01T07:26:52.614Z,1.95
2023-02-01T07:27:52.512Z,1.95
2023-02-01T07:28:52.460Z,1.93
2023-02-01T07:29:52.413Z,1.89
2023-02-01T07:30:52.418Z,1.92
2023-02-01T07:31:52.343Z,1.93
2023-02-01T07:32:52.351Z,1.91
2023-02-01T07:33:52.257Z,1.85
2023-02-01T07:34:52.208Z,1.99
2023-02-01T07:35:52.185Z,1.95
2023-02-01T07:36:52.134Z,1.92
2023-02-01T07:37:52.075Z,1.99
2023-02-01T07:38:52.888Z,2.00
2023-02-01T07:39:52.010Z,2.01
2023-02-01T07:40:52.015Z,2.03
2023-02-01T07:41:51.925Z,2.06
2023-02-01T07:42:51.876Z,2.06
2023-02-01T07:43:51.847Z,2.07
2023-02-01T07:44:51.829Z,2.03
2023-02-01T07:45:51.815Z,2.01
2023-02-01T07:46:51.729Z,1.99
2023-02-01T07:47:51.674Z,2.00
2023-02-01T07:48:51.646Z,1.99
2023-02-01T07:49:51.596Z,1.97
2023-02-01T07:50:51.567Z,1.97
2023-02-01T07:51:51.515Z,2.01
2023-02-01T07:52:51.496Z,2.00
2023-02-01T07:53:51.444Z,2.01
2023-02-01T07:54:51.418Z,2.01
2023-02-01T07:55:51.396Z,2.01
2023-02-01T07:56:51.359Z,1.99
2023-02-01T07:57:51.313Z,1.99
2023-02-01T07:58:51.259Z,1.95
2023-02-01T07:59:51.222Z,2.06
2023-02-01T08:00:51.208Z,2.06
2023-02-01T08:01:51.172Z,2.10
2023-02-01T08:02:51.101Z,2.12
2023-02-01T08:03:51.068Z,2.11
2023-02-01T08:04:51.009Z,2.07
2023-02-01T08:05:50.991Z,2.17
2023-02-01T08:06:50.951Z,2.15
2023-02-01T08:07:50.914Z,2.15
2023-02-01T08:08:50.862Z,2.15
2023-02-01T08:09:50.830Z,2.15
2023-02-01T08:10:50.799Z,2.14
2023-02-01T08:11:50.750Z,2.12
2023-02-01T08:12:50.730Z,2.06
2023-02-01T08:13:50.715Z,2.11
2023-02-01T08:14:50.666Z,2.15
2023-02-01T08:15:50.634Z,2.07
2023-02-01T08:16:50.720Z,2.17
2023-02-01T08:17:50.581Z,2.22
2023-02-01T08:18:50.543Z,2.28
2023-02-01T08:19:50.502Z,2.22
2023-02-01T08:20:50.482Z,2.24
2023-02-01T08:21:50.430Z,2.30
2023-02-01T08:22:51.604Z,2.30
2023-02-01T08:23:50.361Z,2.29
2023-02-01T08:24:50.332Z,2.28
2023-02-01T08:25:50.301Z,2.30
2023-02-01T08:26:50.288Z,2.33
2023-02-01T08:27:50.212Z,2.29
2023-02-01T08:28:50.228Z,2.21
2023-02-01T08:29:50.152Z,2.21
2023-02-01T08:30:50.123Z,2.19
2023-02-01T08:31:50.101Z,2.21
2023-02-01T08:32:49.997Z,2.29
2023-02-01T08:33:49.935Z,2.33
2023-02-01T08:34:49.917Z,2.33
2023-02-01T08:35:49.877Z,2.33
2023-02-01T08:36:49.823Z,2.43
2023-02-01T08:37:49.783Z,2.53
2023-02-01T08:38:49.754Z,2.48
2023-02-01T08:39:49.707Z,2.45
2023-02-01T08:40:49.690Z,2.48
2023-02-01T08:41:49.636Z,2.45
2023-02-01T08:42:49.586Z,2.48
2023-02-01T08:43:49.556Z,2.40
2023-02-01T08:44:49.522Z,2.37
2023-02-01T08:45:49.553Z,2.37
2023-02-01T08:46:49.428Z,2.28
2023-02-01T08:47:49.401Z,2.28
2023-02-01T08:48:49.359Z,2.29
2023-02-01T08:49:49.326Z,2.24
2023-02-01T08:50:49.299Z,2.19
2023-02-01T08:51:49.260Z,2.22
2023-02-01T08:52:49.219Z,2.22
2023-02-01T08:53:49.209Z,2.21
2023-02-01T08:54:49.165Z,2.15
2023-02-01T08:55:49.121Z,2.25
2023-02-01T08:56:49.116Z,2.21
2023-02-01T08:57:49.065Z,2.22
2023-02-01T08:58:49.043Z,2.24
2023-02-01T08:59:48.997Z,2.36
2023-02-01T09:00:48.971Z,2.37
2023-02-01T09:01:48.919Z,2.42
2023-02-01T09:02:48.891Z,2.54
2023-02-01T09:03:48.854Z,2.45
2023-02-01T09:04:48.809Z,2.45
2023-02-01T09:05:50.094Z,2.42
2023-02-01T09:06:48.735Z,2.40
2023-02-01T09:07:48.697Z,2.39
2023-02-01T09:08:48.688Z,2.32
2023-02-01T09:09:48.635Z,2.29
2023-02-01T09:10:48.602Z,2.30
2023-02-01T09:11:48.546Z,2.32
2023-02-01T09:12:48.528Z,2.36
2023-02-01T09:13:48.472Z,2.32
2023-02-01T09:14:48.464Z,2.33
2023-02-01T09:15:48.432Z,2.36
2023-02-01T09:16:48.363Z,2.30
2023-02-01T09:17:48.310Z,2.29
2023-02-01T09:18:56.464Z,2.33
2023-02-01T09:19:49.223Z,2.22
2023-02-01T09:20:48.196Z,2.32
2023-02-01T09:21:48.143Z,2.33
2023-02-01T09:22:48.119Z,2.37
2023-02-01T09:23:48.071Z,2.36
2023-02-01T09:24:48.067Z,2.33
2023-02-01T09:25:48.021Z,2.40
2023-02-01T09:26:48.002Z,2.30
2023-02-01T09:27:47.935Z,2.36
2023-02-01T09:28:47.895Z,2.35
2023-02-01T09:29:47.855Z,2.30
2023-02-01T09:30:47.949Z,2.29
2023-02-01T09:31:57.620Z,2.28
2023-02-01T09:32:48.759Z,2.28
2023-02-01T09:33:47.705Z,2.24
2023-02-01T09:34:47.676Z,2.24
2023-02-01T09:35:47.652Z,2.33
2023-02-01T09:36:47.596Z,2.35
2023-02-01T09:37:47.568Z,2.37
2023-02-01T09:38:52.803Z,2.40
2023-02-01T09:39:48.471Z,2.40
2023-02-01T09:40:47.455Z,2.36
2023-02-01T09:41:47.410Z,2.36
2023-02-01T09:42:47.362Z,2.32
2023-02-01T09:43:47.319Z,2.36
2023-02-01T09:44:47.272Z,2.35
2023-02-01T09:45:47.228Z,2.36
2023-02-01T09:46:47.188Z,2.37
2023-02-01T09:47:47.149Z,2.40
2023-02-01T09:48:47.099Z,2.37
2023-02-01T09:49:47.058Z,2.32
2023-02-01T09:50:47.021Z,2.28
2023-02-01T09:51:46.951Z,2.30
2023-02-01T09:52:46.922Z,2.33
2023-02-01T09:53:46.869Z,2.37
2023-02-01T09:54:46.819Z,2.37
2023-02-01T09:55:46.794Z,2.36
2023-02-01T09:56:46.740Z,2.39
2023-02-01T09:57:46.680Z,2.37
2023-02-01T09:58:46.635Z,2.37
2023-02-01T09:59:46.590Z,2.40
2023-02-01T10:00:46.555Z,2.39
2023-02-01T10:01:46.517Z,2.42
2023-02-01T10:02:46.466Z,2.42
2023-02-01T10:03:46.424Z,2.47
2023-02-01T10:04:46.372Z,2.47
2023-02-01T10:05:46.365Z,2.54
2023-02-01T10:06:46.303Z,2.57
2023-02-01T10:07:46.259Z,2.54
2023-02-01T10:08:46.222Z,2.54
2023-02-01T10:09:46.188Z,2.53
2023-02-01T10:10:46.154Z,2.55
2023-02-01T10:11:46.093Z,2.53
2023-02-01T10:12:46.053Z,2.54
2023-02-01T10:13:46.011Z,2.45
2023-02-01T10:14:45.983Z,2.54
2023-02-01T10:15:45.976Z,2.42
2023-02-01T10:16:46.087Z,2.47
2023-02-01T10:17:45.855Z,2.47
2023-02-01T10:18:45.826Z,2.48
2023-02-01T10:19:45.772Z,2.51
2023-02-01T10:20:45.744Z,2.53
2023-02-01T10:21:45.687Z,2.53
2023-02-01T10:23:10.735Z,2.55
2023-02-01T10:23:46.586Z,2.60
2023-02-01T10:24:45.547Z,2.55
2023-02-01T10:25:45.523Z,2.57
2023-02-01T10:26:45.509Z,2.57
2023-02-01T10:27:45.426Z,2.61
2023-02-01T10:28:45.386Z,2.69
2023-02-01T10:29:45.336Z,2.69
2023-02-01T10:30:45.366Z,2.68
2023-02-01T10:31:45.363Z,2.71
2023-02-01T10:32:45.209Z,2.63
2023-02-01T10:33:45.177Z,2.63
2023-02-01T10:34:45.153Z,2.60
2023-02-01T10:35:45.112Z,2.54
2023-02-01T10:36:45.047Z,2.54
2023-02-01T10:37:44.999Z,2.55
2023-02-01T10:38:44.979Z,2.60
2023-02-01T10:39:44.929Z,2.58
2023-02-01T10:40:44.900Z,2.54
2023-02-01T10:41:44.829Z,2.45
2023-02-01T10:42:44.810Z,2.43
2023-02-01T10:43:44.748Z,2.43
2023-02-01T10:44:44.705Z,2.45
2023-02-01T10:45:44.665Z,2.48
2023-02-01T10:46:44.725Z,2.51
2023-02-01T10:47:44.548Z,2.50
2023-02-01T10:48:44.516Z,2.53
2023-02-01T10:49:44.460Z,2.54
2023-02-01T10:50:44.432Z,2.50
2023-02-01T10:51:44.359Z,2.48
2023-02-01T10:52:44.326Z,2.47
2023-02-01T10:53:44.272Z,2.47
2023-02-01T10:54:44.234Z,2.40
2023-02-01T10:55:44.181Z,2.40
2023-02-01T10:56:44.139Z,2.39
2023-02-01T10:57:44.062Z,2.39
2023-02-01T10:58:44.033Z,2.48
2023-02-01T10:59:45.935Z,2.47
2023-02-01T11:00:43.957Z,2.53
2023-02-01T11:01:43.894Z,2.51
2023-02-01T11:02:43.859Z,2.60
2023-02-01T11:03:43.800Z,2.61
2023-02-01T11:04:43.765Z,2.63
2023-02-01T11:05:44.809Z,2.69
2023-02-01T11:06:43.671Z,2.78
2023-02-01T11:07:43.616Z,2.82
2023-02-01T11:08:43.592Z,2.89
2023-02-01T11:09:43.534Z,2.93
2023-02-01T11:10:43.539Z,2.97
2023-02-01T11:11:43.433Z,2.99
2023-02-01T11:12:43.384Z,3.05
2023-02-01T11:13:43.329Z,3.07
2023-02-01T11:14:43.299Z,3.09
2023-02-01T11:15:43.237Z,3.07
2023-02-01T11:16:43.170Z,3.04
2023-02-01T11:17:43.115Z,3.11
2023-02-01T11:18:43.056Z,3.08
2023-02-01T11:19:43.006Z,2.97
2023-02-01T11:20:42.975Z,2.90
2023-02-01T11:21:42.896Z,2.87
2023-02-01T11:22:42.836Z,2.86
2023-02-01T11:23:42.779Z,2.87
2023-02-01T11:24:42.717Z,2.81
2023-02-01T11:25:42.660Z,2.87
2023-02-01T11:26:42.670Z,2.81
2023-02-01T11:27:53.199Z,2.81
2023-02-01T11:28:43.498Z,2.81
2023-02-01T11:29:42.441Z,2.81
2023-02-01T11:30:42.459Z,2.86
2023-02-01T11:31:42.362Z,2.91
2023-02-01T11:32:42.269Z,2.96
2023-02-01T11:33:42.197Z,3.09
2023-02-01T11:34:42.184Z,3.12
2023-02-01T11:35:42.099Z,3.08
2023-02-01T11:36:42.057Z,3.07
2023-02-01T11:37:41.983Z,3.08
2023-02-01T11:38:41.930Z,3.08
2023-02-01T11:39:41.870Z,3.07
2023-02-01T11:40:41.832Z,3.09
2023-02-01T11:41:41.753Z,3.23
2023-02-01T11:42:41.699Z,3.35
2023-02-01T11:43:41.646Z,3.32
2023-02-01T11:44:41.605Z,3.41
2023-02-01T11:45:41.552Z,3.48
2023-02-01T11:46:41.504Z,3.42
2023-02-01T11:47:41.435Z,3.26
2023-02-01T11:48:41.392Z,3.29
2023-02-01T11:49:41.330Z,3.44
2023-02-01T11:50:41.292Z,3.41
2023-02-01T11:51:41.221Z,3.37
2023-02-01T11:52:41.208Z,3.41
2023-02-01T11:53:41.110Z,3.35
2023-02-01T11:54:41.063Z,3.27
2023-02-01T11:55:41.030Z,3.23
2023-02-01T11:56:40.944Z,3.17
2023-02-01T11:57:40.887Z,3.15
2023-02-01T11:58:47.829Z,3.11
2023-02-01T11:59:43.094Z,3.02
2023-02-01T12:00:41.742Z,3.04
2023-02-01T12:01:40.719Z,3.00
2023-02-01T12:02:40.957Z,2.96
2023-02-01T12:03:40.566Z,2.90
2023-02-01T12:04:40.479Z,2.86
2023-02-01T12:05:40.447Z,2.84
2023-02-01T12:06:40.381Z,2.86
2023-02-01T12:07:40.330Z,2.79
2023-02-01T12:08:40.272Z,2.79
2023-02-01T12:09:40.229Z,2.89
2023-02-01T12:10:40.174Z,2.82
2023-02-01T12:11:40.116Z,2.81
2023-02-01T12:12:40.050Z,2.76
2023-02-01T12:13:40.014Z,2.84
2023-02-01T12:14:39.955Z,2.82
2023-02-01T12:15:39.913Z,2.79
2023-02-01T12:16:39.881Z,2.86
2023-02-01T12:17:39.782Z,2.89
2023-02-01T12:18:39.745Z,2.84
2023-02-01T12:19:39.704Z,2.86
2023-02-01T12:20:39.644Z,2.89
2023-02-01T12:21:39.583Z,2.91
2023-02-01T12:22:39.555Z,2.90
2023-02-01T12:23:39.482Z,2.96
2023-02-01T12:24:39.421Z,2.93
2023-02-01T12:25:39.395Z,2.93
2023-02-01T12:26:39.389Z,2.87
2023-02-01T12:27:39.267Z,2.82
2023-02-01T12:28:39.205Z,2.84
2023-02-01T12:29:39.157Z,2.82
2023-02-01T12:30:39.137Z,2.84
2023-02-01T12:31:39.157Z,2.90
2023-02-01T12:32:38.987Z,2.91
2023-02-01T12:33:38.934Z,2.94
2023-02-01T12:34:38.866Z,2.86
2023-02-01T12:35:38.855Z,2.96
2023-02-01T12:36:38.756Z,2.99
2023-02-01T12:37:38.778Z,2.97
2023-02-01T12:38:38.651Z,2.94
2023-02-01T12:39:38.606Z,2.90
2023-02-01T12:40:38.550Z,2.91
2023-02-01T12:41:38.468Z,2.91
2023-02-01T12:42:38.419Z,2.89
2023-02-01T12:43:38.366Z,2.73
2023-02-01T12:44:38.332Z,2.69
2023-02-01T12:45:38.297Z,2.65
2023-02-01T12:46:38.213Z,2.58
2023-02-01T12:47:38.173Z,2.58
2023-02-01T12:48:38.079Z,2.60
2023-02-01T12:49:38.031Z,2.53
2023-02-01T12:50:37.988Z,2.55
2023-02-01T12:51:37.942Z,2.50
2023-02-01T12:52:37.879Z,2.47
2023-02-01T12:53:37.822Z,2.48
2023-02-01T12:54:37.803Z,2.47
2023-02-01T12:55:37.740Z,2.50
2023-02-01T12:56:37.678Z,2.47
2023-02-01T12:57:37.630Z,2.55
2023-02-01T12:58:37.604Z,2.51
2023-02-01T12:59:37.509Z,2.53
2023-02-01T13:00:37.472Z,2.48
2023-02-01T13:01:37.399Z,2.50
2023-02-01T13:02:37.409Z,2.57
2023-02-01T13:03:37.301Z,2.58
2023-02-01T13:04:37.278Z,2.55
2023-02-01T13:05:37.206Z,2.54
2023-02-01T13:06:37.149Z,2.61
2023-02-01T13:07:37.100Z,2.58
2023-02-01T13:08:37.065Z,2.48
2023-02-01T13:09:37.024Z,2.48
2023-02-01T13:10:36.969Z,2.45
2023-02-01T13:11:36.895Z,2.48
2023-02-01T13:12:36.852Z,2.48
2023-02-01T13:13:36.804Z,2.47
2023-02-01T13:14:36.744Z,2.47
2023-02-01T13:15:36.727Z,2.47
2023-02-01T13:16:36.721Z,2.45
2023-02-01T13:17:36.632Z,2.50